This is the latest recevied weather packets stored in our database for station/object WB4ROX-10. If no packets are shown the sender has not sent any weather packets the latest 10 day(s).
| Time | Temp. | Humidity | Pressure | Rain* | Wind** | Luminosity | Snow |
|---|---|---|---|---|---|---|---|
| 1787676640 | 20° C | 53% | 1015.9 hPa | 0 mm | - | - | - |
| 1787675440 | 20° C | 60% | 1016 hPa | 0 mm | - | - | - |
| 1787674840 | 19.44° C | 61% | 1016 hPa | 0 mm | - | - | - |
| 1787673944 | 18.89° C | 62% | 1016.1 hPa | 0 mm | - | - | - |
| 1787673640 | 18.89° C | 61% | 1016 hPa | 0 mm | - | - | - |
| 1787673040 | 18.89° C | 62% | 1016.1 hPa | 0 mm | - | - | - |
| 1787672440 | 18.89° C | 61% | 1016 hPa | 0 mm | - | - | - |
| 1787672140 | 18.89° C | 62% | 1016 hPa | 0 mm | - | - | - |
| 1787671539 | 18.89° C | 62% | 1016 hPa | 0 mm | - | - | - |
| 1787670940 | 18.89° C | 63% | 1016 hPa | 0 mm | - | - | - |
| 1787670640 | 18.89° C | 63% | 1016 hPa | 0 mm | - | - | - |
| 1787670040 | 18.89° C | 65% | 1015.8 hPa | 0 mm | - | - | - |
| 1787669742 | 18.89° C | 63% | 1015.8 hPa | 0 mm | - | - | - |
| 1787669439 | 18.33° C | 65% | 1015.9 hPa | 0 mm | - | - | - |
| 1787665840 | 15.56° C | 71% | 1016 hPa | 0 mm | - | - | - |
| 1787664340 | 15° C | 75% | 1016 hPa | 0 mm | - | - | - |
| 1787657439 | 13.33° C | 77% | 1015.3 hPa | 0 mm | - | - | - |
| 1787656839 | 12.78° C | 77% | 1015.1 hPa | 0 mm | - | - | - |
| 1787655640 | 12.78° C | 79% | 1014.6 hPa | 0 mm | - | - | - |
| 1787655040 | 12.78° C | 79% | 1014.4 hPa | 0 mm | - | - | - |
| 1787652340 | 12.22° C | 79% | 1014.4 hPa | 0 mm | - | - | - |
| 1787652040 | 12.22° C | 79% | 1014.4 hPa | 0 mm | - | - | - |
| 1787651440 | 12.78° C | 78% | 1014.2 hPa | 0 mm | - | - | - |
| 1787650841 | 12.78° C | 76% | 1014.1 hPa | 0 mm | - | - | - |
| 1787650541 | 13.33° C | 75% | 1014.2 hPa | 0 mm | - | - | - |
* Rain latest hour (hover to see other rain measurements)
** Current wind speed in m/s (hover to see current wind gust speed)